Time;durP1;ratioP1;P1;durP2;ratioP2;P2;SDS_P1;SDS_P2;PMS_P1;PMS_P2;Temp;Humidity;BMP_temperature;BMP_pressure;BME280_temperature;BME280_humidity;BME280_pressure;Samples;Min_cycle;Max_cycle;Signal;HPM_P1;HPM_P2
2022/04/21 00:04:38;;;;;;;6.40;5.50;;;11.40;76.40;;;;;;10378961;28;20549;-83
2022/04/21 00:09:40;;;;;;;5.60;4.97;;;11.30;76.10;;;;;;10345184;28;20253;-83
2022/04/21 00:14:45;;;;;;;6.30;5.70;;;11.20;77.20;;;;;;10347758;28;20225;-82
2022/04/21 00:19:48;;;;;;;5.50;5.10;;;11.00;76.90;;;;;;10349931;28;20573;-83
2022/04/21 00:24:50;;;;;;;5.77;5.27;;;10.90;77.40;;;;;;10351043;28;20724;-83
2022/04/21 00:29:53;;;;;;;5.60;5.10;;;10.70;78.70;;;;;;10347876;28;20246;-83
2022/04/21 00:34:56;;;;;;;5.70;5.30;;;10.60;77.40;;;;;;10382715;28;20229;-83
2022/04/21 00:39:59;;;;;;;5.93;5.43;;;10.50;79.00;;;;;;10365552;28;20232;-83
2022/04/21 00:45:02;;;;;;;6.57;5.57;;;10.40;79.70;;;;;;10351055;28;20195;-83
2022/04/21 00:50:05;;;;;;;6.43;5.93;;;10.30;81.00;;;;;;10366538;28;20224;-83
2022/04/21 00:55:09;;;;;;;7.30;6.80;;;10.20;79.70;;;;;;10350706;28;20226;-83
2022/04/21 01:00:14;;;;;;;7.00;6.40;;;10.20;81.90;;;;;;10364012;28;20218;-83
2022/04/21 01:05:18;;;;;;;6.93;6.10;;;10.10;80.50;;;;;;10354565;28;20625;-83
2022/04/21 01:10:20;;;;;;;7.00;6.50;;;10.10;79.30;;;;;;10361063;28;20253;-83
2022/04/21 01:15:24;;;;;;;7.47;6.77;;;10.00;79.60;;;;;;10373675;28;20191;-83
2022/04/21 01:20:27;;;;;;;7.10;6.53;;;9.80;81.90;;;;;;10385586;28;20249;-82
2022/04/21 01:25:37;;;;;;;7.07;6.47;;;9.80;81.80;;;;;;10375031;28;20229;-83
2022/04/21 01:30:40;;;;;;;7.70;7.00;;;9.70;82.60;;;;;;10411081;28;20222;-85
2022/04/21 01:35:44;;;;;;;8.10;7.50;;;9.60;81.70;;;;;;10378274;28;20198;-84
2022/04/21 01:46:05;;;;;;;8.23;7.40;;;9.50;84.10;;;;;;10377304;28;20236;-85
2022/04/21 01:51:09;;;;;;;8.40;7.73;;;9.50;84.80;;;;;;10372799;28;20214;-84
2022/04/21 01:56:11;;;;;;;8.30;7.70;;;9.50;84.40;;;;;;10405785;28;20190;-84
2022/04/21 02:01:14;;;;;;;9.33;8.50;;;9.40;84.70;;;;;;10408334;28;20214;-85
2022/04/21 02:06:17;;;;;;;8.43;7.70;;;9.40;84.20;;;;;;10390163;28;20212;-84
2022/04/21 02:11:20;;;;;;;12.27;9.40;;;9.40;84.40;;;;;;10373239;28;20253;-85
2022/04/21 02:16:22;;;;;;;9.00;8.37;;;9.30;86.30;;;;;;10390860;28;20253;-85
2022/04/21 02:21:26;;;;;;;9.33;8.53;;;9.30;85.30;;;;;;10375554;28;20214;-84
2022/04/21 02:26:28;;;;;;;9.00;8.20;;;9.20;86.60;;;;;;10369977;28;20195;-85
2022/04/21 02:31:30;;;;;;;8.83;8.03;;;9.20;86.50;;;;;;10404879;28;20218;-85
2022/04/21 02:36:34;;;;;;;9.70;8.80;;;9.20;87.10;;;;;;10379697;28;20317;-84
2022/04/21 02:41:36;;;;;;;9.97;9.07;;;9.20;87.60;;;;;;10357433;28;20226;-85
2022/04/21 02:46:38;;;;;;;9.80;8.80;;;9.20;86.90;;;;;;10396019;28;20199;-83
2022/04/21 02:51:42;;;;;;;9.50;8.80;;;9.20;86.90;;;;;;10354299;28;20218;-83
2022/04/21 03:02:04;;;;;;;11.10;10.10;;;9.10;87.90;;;;;;10364544;28;20202;-84
2022/04/21 03:07:08;;;;;;;11.67;10.67;;;9.00;87.00;;;;;;10369911;28;20309;-84
2022/04/21 03:12:11;;;;;;;10.70;9.70;;;9.00;87.80;;;;;;10372829;28;20215;-83
2022/04/21 03:17:13;;;;;;;12.93;11.33;;;8.90;88.00;;;;;;10369558;28;20198;-82
2022/04/21 03:27:37;;;;;;;12.90;11.80;;;8.90;88.20;;;;;;10352668;28;20206;-82
2022/04/21 03:32:40;;;;;;;11.87;10.97;;;8.80;88.90;;;;;;10386699;28;20302;-84
2022/04/21 03:37:43;;;;;;;12.37;11.37;;;8.80;88.90;;;;;;10350999;28;20195;-83
2022/04/21 03:42:45;;;;;;;12.67;11.67;;;8.70;89.10;;;;;;10357575;28;20219;-82
2022/04/21 03:47:48;;;;;;;13.17;12.07;;;8.70;89.50;;;;;;10385482;28;20285;-82
2022/04/21 03:52:51;;;;;;;12.27;11.17;;;8.70;90.30;;;;;;10349539;28;20222;-81
2022/04/21 03:57:53;;;;;;;13.00;11.97;;;8.80;90.00;;;;;;10347444;28;20195;-84
2022/04/21 04:02:56;;;;;;;12.77;11.77;;;8.70;89.90;;;;;;10369215;28;20233;-84
2022/04/21 04:13:19;;;;;;;14.23;12.93;;;8.60;89.90;;;;;;10454809;23;20231;-78
2022/04/21 04:18:22;;;;;;;14.30;13.10;;;8.60;90.30;;;;;;10449414;28;20276;-78
2022/04/21 04:23:26;;;;;;;14.27;13.07;;;8.50;90.10;;;;;;10446342;28;20228;-78
2022/04/21 04:28:28;;;;;;;17.03;15.50;;;8.50;90.10;;;;;;10414350;28;20210;-80
2022/04/21 04:33:30;;;;;;;15.80;14.50;;;8.50;90.80;;;;;;10430540;28;20213;-80
2022/04/21 04:38:33;;;;;;;17.30;15.80;;;8.50;90.00;;;;;;10445288;28;20294;-81
2022/04/21 04:43:35;;;;;;;17.60;15.93;;;8.50;90.40;;;;;;10426460;28;20197;-80
2022/04/21 04:48:38;;;;;;;17.17;15.63;;;8.50;90.40;;;;;;10441075;28;20243;-80
2022/04/21 04:53:42;;;;;;;16.23;14.93;;;8.50;90.70;;;;;;10425640;28;20201;-79
2022/04/21 04:58:44;;;;;;;16.97;15.57;;;8.50;90.60;;;;;;10448655;28;20197;-79
2022/04/21 05:03:46;;;;;;;16.10;14.80;;;8.50;90.60;;;;;;10417410;28;20225;-79
2022/04/21 05:08:49;;;;;;;16.30;14.80;;;8.50;90.70;;;;;;10433797;28;20266;-79
2022/04/21 05:13:52;;;;;;;15.50;14.10;;;8.60;90.60;;;;;;10455679;28;20225;-79
2022/04/21 05:18:54;;;;;;;16.20;14.60;;;8.60;90.60;;;;;;10448249;28;20222;-79
2022/04/21 05:23:59;;;;;;;16.73;15.33;;;8.60;90.90;;;;;;10420867;28;20700;-79
2022/04/21 05:30:55;;;;;;;16.23;14.50;;;8.60;91.00;;;;;;10444104;28;20611;-78
2022/04/21 05:34:26;;;;;;;15.30;13.80;;;8.70;91.80;;;;;;10423229;28;20189;-78
2022/04/21 05:39:32;;;;;;;15.37;13.93;;;8.70;91.50;;;;;;10455597;28;20607;-79
2022/04/21 05:44:35;;;;;;;15.03;13.63;;;8.80;91.60;;;;;;10444835;28;20515;-78
2022/04/21 05:49:38;;;;;;;15.77;14.20;;;9.00;91.40;;;;;;10420953;28;20614;-78
2022/04/21 05:54:42;;;;;;;15.63;14.33;;;9.00;91.90;;;;;;10440227;28;20482;-78
2022/04/21 05:59:44;;;;;;;16.67;14.97;;;9.10;91.70;;;;;;10454083;28;20237;-79
2022/04/21 06:04:46;;;;;;;15.53;14.23;;;9.30;91.50;;;;;;10429523;28;20280;-78
2022/04/21 06:09:49;;;;;;;15.80;14.40;;;9.30;91.60;;;;;;10452496;28;20225;-78
2022/04/21 06:14:51;;;;;;;15.43;14.03;;;9.50;92.00;;;;;;10428536;28;20540;-79
2022/04/21 06:19:55;;;;;;;15.00;13.77;;;9.60;92.00;;;;;;10453945;28;20272;-79
2022/04/21 06:24:58;;;;;;;16.43;14.83;;;9.70;91.70;;;;;;10427677;28;20224;-78
2022/04/21 06:30:00;;;;;;;17.07;15.57;;;9.90;91.60;;;;;;10458761;28;20232;-79
2022/04/21 06:35:02;;;;;;;16.90;15.50;;;10.00;91.10;;;;;;10420458;28;20197;-78
2022/04/21 06:40:07;;;;;;;16.53;15.03;;;10.20;91.10;;;;;;10441542;28;20237;-78
2022/04/21 06:50:30;;;;;;;17.30;15.70;;;10.50;90.60;;;;;;10451078;28;20210;-78
2022/04/21 06:55:34;;;;;;;17.93;16.43;;;10.70;90.30;;;;;;10425347;28;20193;-78
2022/04/21 07:00:37;;;;;;;17.10;15.57;;;10.70;90.50;;;;;;10450310;28;20206;-78
2022/04/21 07:05:40;;;;;;;16.70;15.13;;;10.90;88.70;;;;;;10426707;28;20197;-78
2022/04/21 07:10:43;;;;;;;17.73;15.60;;;11.00;89.90;;;;;;10456383;28;20217;-77
2022/04/21 07:15:45;;;;;;;16.07;14.67;;;11.10;90.20;;;;;;10426652;28;20220;-78
2022/04/21 07:20:48;;;;;;;16.37;14.97;;;11.20;89.10;;;;;;10450954;28;20753;-78
2022/04/21 07:25:51;;;;;;;17.00;15.50;;;11.30;88.80;;;;;;10423556;28;20215;-78
2022/04/21 07:30:53;;;;;;;16.60;15.00;;;11.40;89.30;;;;;;10451837;28;20252;-78
2022/04/21 07:35:55;;;;;;;17.27;15.67;;;11.60;84.90;;;;;;10404705;28;20244;-78
2022/04/21 07:40:59;;;;;;;16.47;14.77;;;11.70;85.40;;;;;;10458584;28;20229;-78
2022/04/21 07:46:01;;;;;;;16.87;15.50;;;11.90;85.80;;;;;;10450559;28;20642;-78
2022/04/21 07:51:03;;;;;;;14.73;13.40;;;12.10;85.70;;;;;;10418652;28;20584;-78
2022/04/21 07:56:07;;;;;;;14.73;13.33;;;12.40;84.30;;;;;;10452921;28;20202;-78
2022/04/21 08:01:09;;;;;;;14.97;13.57;;;12.60;83.30;;;;;;10418563;28;20217;-78
2022/04/21 08:06:12;;;;;;;13.23;12.13;;;12.90;82.10;;;;;;10443378;28;20350;-78
2022/04/21 08:11:16;;;;;;;13.13;11.90;;;13.10;82.40;;;;;;10421034;28;20701;-78
2022/04/21 08:16:18;;;;;;;14.17;12.90;;;13.30;80.20;;;;;;10454799;28;20228;-78
2022/04/21 08:21:21;;;;;;;13.87;12.57;;;13.50;79.80;;;;;;10418354;28;20258;-78
2022/04/21 08:37:03;;;;;;;12.53;11.33;;;14.20;75.80;;;;;;10433630;28;20209;-79
2022/04/21 08:42:10;;;;;;;10.83;10.03;;;14.40;75.40;;;;;;10427147;28;20209;-79
2022/04/21 08:47:14;;;;;;;10.47;9.67;;;14.60;75.80;;;;;;10431239;28;20198;-79
2022/04/21 08:52:17;;;;;;;10.47;9.30;;;14.80;75.40;;;;;;10432854;28;20755;-79
2022/04/21 08:57:21;;;;;;;11.97;10.90;;;15.10;73.80;;;;;;10436595;28;20263;-78
2022/04/21 09:02:33;;;;;;;11.33;10.43;;;15.40;72.50;;;;;;10426877;28;20661;-77
2022/04/21 09:07:44;;;;;;;12.30;11.30;;;15.50;71.70;;;;;;10435298;28;20193;-78
2022/04/21 09:12:50;;;;;;;10.97;10.10;;;15.70;71.90;;;;;;10427884;28;20227;-79
2022/04/21 09:17:56;;;;;;;10.50;9.50;;;15.90;72.00;;;;;;10430595;28;20193;-79
2022/04/21 09:23:00;;;;;;;10.73;9.87;;;16.10;71.20;;;;;;10434741;28;20307;-78
2022/04/21 09:28:04;;;;;;;10.20;9.33;;;16.40;70.30;;;;;;10433751;28;20198;-78
2022/04/21 09:33:06;;;;;;;11.57;10.67;;;16.70;69.90;;;;;;10439740;28;20224;-79
2022/04/21 09:38:09;;;;;;;9.33;8.63;;;17.10;69.60;;;;;;10439682;28;20681;-79
2022/04/21 09:43:12;;;;;;;10.83;10.03;;;17.50;68.30;;;;;;10442683;28;20213;-79
2022/04/21 09:48:18;;;;;;;9.80;9.00;;;17.80;65.80;;;;;;10442690;28;20735;-78
2022/04/21 09:53:23;;;;;;;10.33;9.43;;;18.00;67.70;;;;;;10438891;28;20302;-77
2022/04/21 09:58:26;;;;;;;8.80;8.00;;;18.30;66.30;;;;;;10434690;28;20201;-79
2022/04/21 10:03:32;;;;;;;8.30;7.60;;;18.50;65.80;;;;;;10432690;28;20220;-79
2022/04/21 10:08:37;;;;;;;8.33;7.63;;;18.70;67.90;;;;;;10424652;28;20590;-78
2022/04/21 10:13:42;;;;;;;8.27;7.50;;;18.90;65.60;;;;;;10416852;23;20263;-77
2022/04/21 10:18:47;;;;;;;8.20;7.60;;;18.70;63.90;;;;;;10407445;28;20202;-77
2022/04/21 10:23:51;;;;;;;7.23;6.67;;;18.40;64.30;;;;;;10378101;28;20589;-78
2022/04/21 10:28:58;;;;;;;8.10;7.50;;;18.10;63.20;;;;;;10377797;28;20294;-78
2022/04/21 10:34:04;;;;;;;8.73;8.10;;;17.90;66.80;;;;;;10378014;28;20226;-78
2022/04/21 10:39:23;;;;;;;8.67;7.97;;;17.70;67.00;;;;;;10377465;28;20221;-78
2022/04/21 10:44:28;;;;;;;8.67;8.00;;;17.40;63.10;;;;;;10358682;28;20210;-77
2022/04/21 10:49:56;;;;;;;8.57;7.87;;;17.10;66.40;;;;;;10379172;28;20215;-77
2022/04/21 11:00:41;;;;;;;7.87;7.27;;;16.70;66.40;;;;;;10382861;28;20640;-78
2022/04/21 11:05:43;;;;;;;8.13;7.53;;;16.70;69.20;;;;;;10382662;28;20686;-78
2022/04/21 11:10:45;;;;;;;7.33;6.83;;;16.80;67.60;;;;;;10383917;28;20275;-78
2022/04/21 11:15:50;;;;;;;6.93;6.33;;;17.00;69.70;;;;;;10393460;28;20716;-78
2022/04/21 11:20:53;;;;;;;7.37;6.77;;;17.00;70.80;;;;;;10377300;28;20219;-78
2022/04/21 11:26:04;;;;;;;6.50;6.00;;;17.20;71.90;;;;;;10361983;28;20230;-80
2022/04/21 11:31:08;;;;;;;6.53;6.03;;;17.40;68.30;;;;;;10382269;28;20242;-80
2022/04/21 11:36:11;;;;;;;5.70;5.20;;;17.40;66.90;;;;;;10388367;28;20201;-79
2022/04/21 11:41:16;;;;;;;5.20;4.90;;;17.50;69.20;;;;;;10380461;28;20224;-81
2022/04/21 11:46:21;;;;;;;5.50;5.10;;;17.50;68.30;;;;;;10402271;28;20284;-80
2022/04/21 11:51:24;;;;;;;4.87;4.40;;;17.40;71.20;;;;;;10395596;28;20678;-78
2022/04/21 11:56:27;;;;;;;4.87;4.57;;;17.60;74.30;;;;;;10367149;28;20677;-79
2022/04/21 12:06:52;;;;;;;3.90;3.70;;;17.80;70.60;;;;;;10381343;28;20198;-78
2022/04/21 12:11:57;;;;;;;4.07;3.77;;;17.90;69.40;;;;;;10388687;28;20221;-78
2022/04/21 12:17:01;;;;;;;3.43;3.23;;;18.10;66.90;;;;;;10364325;28;20217;-80
2022/04/21 12:22:06;;;;;;;3.10;2.80;;;18.30;65.70;;;;;;10391066;28;20218;-80
2022/04/21 12:27:14;;;;;;;2.20;2.10;;;18.40;67.70;;;;;;10379776;28;20201;-79
2022/04/21 12:32:22;;;;;;;2.40;2.30;;;18.50;68.80;;;;;;10394877;28;20882;-80
2022/04/21 12:37:27;;;;;;;2.00;1.90;;;18.40;65.20;;;;;;10385087;28;20265;-79
2022/04/21 12:42:29;;;;;;;2.20;2.00;;;18.30;64.40;;;;;;10407756;28;20222;-80
2022/04/21 12:47:43;;;;;;;2.60;2.40;;;18.20;68.30;;;;;;10385390;28;20285;-79
2022/04/21 12:52:47;;;;;;;2.60;2.40;;;18.30;67.00;;;;;;10378442;28;20217;-80
2022/04/21 12:57:59;;;;;;;2.60;2.50;;;18.40;63.90;;;;;;10407832;28;20224;-79
2022/04/21 13:03:03;;;;;;;2.40;2.30;;;18.20;66.60;;;;;;10375845;28;20227;-81
2022/04/21 13:08:06;;;;;;;3.07;2.87;;;18.30;65.60;;;;;;10372218;28;20644;-78
2022/04/21 13:13:08;;;;;;;3.20;3.00;;;18.40;61.60;;;;;;10388210;28;20226;-78
2022/04/21 13:18:12;;;;;;;4.27;2.50;;;18.40;62.40;;;;;;10392810;28;20261;-78
2022/04/21 13:23:15;;;;;;;2.87;2.40;;;18.30;63.10;;;;;;10375553;28;20210;-78
2022/04/21 13:28:17;;;;;;;3.73;3.13;;;18.40;64.90;;;;;;10375147;28;20288;-78
2022/04/21 13:33:23;;;;;;;4.10;3.23;;;18.60;64.10;;;;;;10367779;28;20233;-78
2022/04/21 13:38:25;;;;;;;2.90;2.70;;;18.60;66.20;;;;;;10385300;28;20202;-79
2022/04/21 13:43:28;;;;;;;3.50;3.30;;;18.70;68.90;;;;;;10361997;28;20643;-79
2022/04/21 13:48:32;;;;;;;3.70;3.50;;;18.70;63.00;;;;;;10382738;28;20626;-79
2022/04/21 13:53:34;;;;;;;3.90;3.50;;;18.50;63.70;;;;;;10388336;28;20228;-79
2022/04/21 13:58:36;;;;;;;3.60;3.30;;;18.30;63.00;;;;;;10372553;28;20206;-79
2022/04/21 14:03:40;;;;;;;3.10;2.90;;;18.30;62.30;;;;;;10384237;28;20218;-79
2022/04/21 14:08:45;;;;;;;3.03;2.83;;;18.40;63.90;;;;;;10370434;28;20234;-79
2022/04/21 14:13:47;;;;;;;2.50;2.40;;;18.50;64.20;;;;;;10380056;28;20234;-79
2022/04/21 14:18:51;;;;;;;4.20;2.87;;;18.60;64.30;;;;;;10376848;28;20213;-79
2022/04/21 14:23:53;;;;;;;3.40;3.20;;;18.60;63.70;;;;;;10371518;28;20829;-79
2022/04/21 14:28:56;;;;;;;3.00;2.80;;;18.50;61.80;;;;;;10400595;28;20213;-80
2022/04/21 14:34:00;;;;;;;3.30;3.00;;;18.40;64.50;;;;;;10365704;28;20287;-80
2022/04/21 14:44:21;;;;;;;3.60;3.40;;;18.10;63.10;;;;;;10393356;28;20181;-80
2022/04/21 14:49:26;;;;;;;3.30;3.10;;;18.10;61.70;;;;;;10396605;28;20722;-80
2022/04/21 14:54:28;;;;;;;5.60;3.40;;;18.00;60.30;;;;;;10356723;28;20221;-80
2022/04/21 14:59:31;;;;;;;4.13;3.07;;;17.90;60.60;;;;;;10356387;28;20222;-81
2022/04/21 15:04:35;;;;;;;3.30;3.00;;;17.70;60.30;;;;;;10398334;28;20202;-80
2022/04/21 15:09:37;;;;;;;4.83;3.10;;;17.70;61.80;;;;;;10378890;28;20653;-81
2022/04/21 15:14:39;;;;;;;3.83;3.10;;;17.90;61.60;;;;;;10403829;28;20301;-80
2022/04/21 15:19:46;;;;;;;2.60;2.40;;;18.00;59.40;;;;;;10373069;28;20251;-81
2022/04/21 15:24:52;;;;;;;3.70;2.90;;;18.10;59.50;;;;;;10362852;28;20198;-80
2022/04/21 15:29:54;;;;;;;3.33;3.13;;;18.00;60.60;;;;;;10379430;28;20768;-81
2022/04/21 15:34:59;;;;;;;2.40;2.30;;;17.90;63.10;;;;;;10387294;28;20226;-81
2022/04/21 15:40:04;;;;;;;2.70;2.60;;;17.90;62.10;;;;;;10401157;28;20222;-81
2022/04/21 15:45:07;;;;;;;2.77;2.67;;;17.90;61.90;;;;;;10377411;28;20544;-81
2022/04/21 15:50:11;;;;;;;2.50;2.40;;;17.90;63.10;;;;;;10380461;28;20249;-80
2022/04/21 16:00:33;;;;;;;3.27;2.63;;;18.00;61.70;;;;;;10390364;28;20708;-80
2022/04/21 16:05:36;;;;;;;2.47;2.37;;;17.90;58.70;;;;;;10384369;28;20210;-81
2022/04/21 16:10:39;;;;;;;3.20;3.00;;;17.90;61.00;;;;;;10361803;28;20236;-81
2022/04/21 16:15:41;;;;;;;2.37;2.17;;;17.80;59.60;;;;;;10387991;28;20257;-81
2022/04/21 16:20:45;;;;;;;5.03;2.83;;;17.80;62.20;;;;;;10384832;28;20715;-81
2022/04/21 16:25:47;;;;;;;3.00;2.80;;;17.80;62.90;;;;;;10372610;28;20209;-81
2022/04/21 16:30:49;;;;;;;2.53;2.43;;;17.80;59.70;;;;;;10417323;28;20226;-81
2022/04/21 16:35:53;;;;;;;2.60;2.40;;;17.70;62.50;;;;;;10385609;28;20206;-82
2022/04/21 16:40:55;;;;;;;3.03;2.90;;;17.70;57.50;;;;;;10373097;28;20269;-81
2022/04/21 16:45:58;;;;;;;2.20;2.10;;;17.70;56.20;;;;;;10376955;28;20206;-81
2022/04/21 16:51:02;;;;;;;2.77;2.57;;;17.60;57.70;;;;;;10363115;28;20225;-81
2022/04/21 16:56:04;;;;;;;2.53;2.43;;;17.60;61.10;;;;;;10396200;28;20248;-81
2022/04/21 17:06:31;;;;;;;2.60;2.50;;;17.50;60.40;;;;;;10397811;28;20205;-80
2022/04/21 17:11:35;;;;;;;2.87;2.70;;;17.50;57.90;;;;;;10376331;28;20317;-80
2022/04/21 17:16:37;;;;;;;3.70;3.50;;;17.30;58.30;;;;;;10393117;28;20218;-81
2022/04/21 17:21:41;;;;;;;3.67;3.43;;;17.20;58.80;;;;;;10419723;22;20233;-80
2022/04/21 17:26:43;;;;;;;3.67;3.47;;;17.00;62.50;;;;;;10398367;28;20197;-79
2022/04/21 17:31:45;;;;;;;3.67;3.47;;;16.80;65.20;;;;;;10386455;28;20302;-80
2022/04/21 17:36:49;;;;;;;4.13;3.83;;;16.80;64.30;;;;;;10368971;28;21150;-80
2022/04/21 17:41:51;;;;;;;4.70;4.40;;;16.60;62.90;;;;;;10379827;28;20581;-81
2022/04/21 17:46:53;;;;;;;4.10;3.90;;;16.60;63.30;;;;;;10368034;28;20214;-81
2022/04/21 17:51:57;;;;;;;4.17;3.87;;;16.50;66.00;;;;;;10375657;28;20237;-80
2022/04/21 17:56:59;;;;;;;4.50;4.20;;;16.40;66.50;;;;;;10377396;28;20226;-80
2022/04/21 18:02:02;;;;;;;4.37;3.90;;;16.30;68.50;;;;;;10374714;28;20301;-79
2022/04/21 18:07:06;;;;;;;5.40;4.90;;;16.20;71.70;;;;;;10372831;28;20892;-80
2022/04/21 18:12:11;;;;;;;5.00;4.60;;;16.10;70.10;;;;;;10373569;28;20233;-80
2022/04/21 18:17:13;;;;;;;3.90;3.60;;;16.00;73.50;;;;;;10373555;28;20226;-80
2022/04/21 18:22:17;;;;;;;8.47;4.90;;;16.00;74.90;;;;;;10370782;28;20230;-78
2022/04/21 18:27:19;;;;;;;5.37;4.87;;;15.90;70.30;;;;;;10377557;28;20633;-79
2022/04/21 18:32:21;;;;;;;5.17;4.67;;;15.80;68.10;;;;;;10370068;28;20231;-78
2022/04/21 18:37:25;;;;;;;4.23;3.90;;;15.80;72.80;;;;;;10371876;28;20197;-79
2022/04/21 18:42:27;;;;;;;3.60;3.30;;;15.70;73.80;;;;;;10363501;28;20305;-80
2022/04/21 18:47:30;;;;;;;4.43;4.13;;;15.60;73.60;;;;;;10368127;28;20658;-79
2022/04/21 18:52:34;;;;;;;5.20;4.87;;;15.50;72.90;;;;;;10364621;28;20760;-79
2022/04/21 19:02:56;;;;;;;3.97;3.50;;;15.40;73.90;;;;;;10363456;28;20195;-78
2022/04/21 19:07:59;;;;;;;4.40;4.10;;;15.30;73.90;;;;;;10371472;28;20284;-78
2022/04/21 19:13:02;;;;;;;3.63;3.33;;;15.20;75.10;;;;;;10369975;28;20215;-79
2022/04/21 19:18:04;;;;;;;4.57;4.27;;;15.10;75.90;;;;;;10365572;28;20233;-79
2022/04/21 19:23:08;;;;;;;5.83;5.33;;;15.00;77.00;;;;;;10366781;28;20202;-78
2022/04/21 19:28:10;;;;;;;9.63;6.70;;;14.90;75.20;;;;;;10370339;28;20234;-78
2022/04/21 19:33:14;;;;;;;14.20;10.90;;;14.70;73.50;;;;;;10368113;28;20648;-79
2022/04/21 19:38:17;;;;;;;12.97;11.67;;;14.60;73.90;;;;;;10362793;28;20222;-77
2022/04/21 19:43:20;;;;;;;9.97;6.33;;;14.40;73.70;;;;;;10382839;28;20191;-78
2022/04/21 19:48:22;;;;;;;4.77;4.23;;;14.30;74.70;;;;;;10364579;28;20681;-81
2022/04/21 19:53:25;;;;;;;4.53;4.23;;;14.10;75.00;;;;;;10379880;28;20237;-78
2022/04/21 19:58:29;;;;;;;6.67;5.90;;;14.00;74.20;;;;;;10367039;28;20335;-78
2022/04/21 20:03:31;;;;;;;4.83;4.43;;;13.80;75.20;;;;;;10366205;28;20867;-80
2022/04/21 20:13:56;;;;;;;6.77;4.30;;;13.60;76.20;;;;;;10362136;28;20221;-80
2022/04/21 20:26:36;;;;;;;3.90;3.60;;;13.40;77.60;;;;;;10366353;28;20618;-79
2022/04/21 20:29:41;;;;;;;4.13;3.80;;;13.30;78.90;;;;;;10370421;28;20233;-79
2022/04/21 20:34:44;;;;;;;4.50;4.10;;;13.30;80.30;;;;;;10358029;28;20210;-78
2022/04/21 20:39:48;;;;;;;5.80;4.23;;;13.30;80.40;;;;;;10364654;28;20249;-79
2022/04/21 20:44:51;;;;;;;4.23;3.93;;;13.30;80.60;;;;;;10368152;28;20633;-79
2022/04/21 20:49:53;;;;;;;4.10;3.80;;;13.30;80.10;;;;;;10358993;28;20313;-79
2022/04/21 20:54:57;;;;;;;3.70;3.50;;;13.30;81.90;;;;;;10361287;28;20223;-78
2022/04/21 20:59:59;;;;;;;3.80;3.50;;;13.30;82.40;;;;;;10348492;28;20229;-78
2022/04/21 21:05:01;;;;;;;3.63;3.43;;;13.30;83.10;;;;;;10362994;28;20198;-78
2022/04/21 21:10:06;;;;;;;4.03;3.73;;;13.20;83.00;;;;;;10361217;28;20222;-78
2022/04/21 21:15:09;;;;;;;4.93;3.53;;;13.30;82.40;;;;;;10360090;28;20694;-78
2022/04/21 21:20:13;;;;;;;4.17;3.87;;;13.30;83.10;;;;;;10363468;28;20292;-79
2022/04/21 21:25:18;;;;;;;3.97;3.67;;;13.30;83.70;;;;;;10371914;28;20716;-80
2022/04/21 21:30:20;;;;;;;3.70;3.50;;;13.30;84.20;;;;;;10368889;28;20218;-77
2022/04/21 21:35:22;;;;;;;3.77;3.50;;;13.30;83.10;;;;;;10372475;28;20234;-78
2022/04/21 21:40:26;;;;;;;4.30;3.50;;;13.30;83.90;;;;;;10369524;28;20297;-78
2022/04/21 21:45:28;;;;;;;3.60;3.30;;;13.20;82.50;;;;;;10369187;28;20659;-79
2022/04/21 21:55:51;;;;;;;5.50;4.63;;;13.20;83.40;;;;;;10362395;28;20218;-78
2022/04/21 22:01:00;;;;;;;5.37;4.97;;;13.10;83.60;;;;;;10377338;28;20215;-79
2022/04/21 22:06:02;;;;;;;4.90;4.60;;;13.00;84.60;;;;;;10378840;28;20225;-79
2022/04/21 22:11:09;;;;;;;5.03;4.73;;;13.00;85.00;;;;;;10381571;28;20345;-79
2022/04/21 22:16:15;;;;;;;4.60;4.30;;;12.90;84.30;;;;;;10384640;28;20219;-77
2022/04/21 22:21:17;;;;;;;4.67;4.13;;;12.90;84.90;;;;;;10388232;28;20238;-79
2022/04/21 22:26:22;;;;;;;4.70;4.40;;;12.80;84.40;;;;;;10381088;28;20206;-80
2022/04/21 22:31:24;;;;;;;5.60;5.10;;;12.80;84.80;;;;;;10385161;28;20297;-79
2022/04/21 22:36:27;;;;;;;5.60;5.20;;;12.70;85.60;;;;;;10387061;28;20250;-79
2022/04/21 22:41:30;;;;;;;5.10;4.70;;;12.70;85.70;;;;;;10382981;28;20230;-80
2022/04/21 22:46:32;;;;;;;5.73;5.23;;;12.70;86.30;;;;;;10382252;28;20229;-81
2022/04/21 22:51:34;;;;;;;6.07;5.53;;;12.60;85.60;;;;;;10377078;28;20223;-81
2022/04/21 22:56:38;;;;;;;6.70;6.10;;;12.60;85.40;;;;;;10377620;28;20679;-81
2022/04/21 23:01:40;;;;;;;6.00;5.50;;;12.60;86.00;;;;;;10377442;28;20284;-80
2022/04/21 23:06:42;;;;;;;6.20;5.70;;;12.50;85.80;;;;;;10378597;28;20261;-80
2022/04/21 23:17:06;;;;;;;6.17;5.67;;;12.50;82.80;;;;;;10375478;28;20574;-80
2022/04/21 23:22:08;;;;;;;5.90;5.43;;;12.50;86.10;;;;;;10454917;22;20623;-80
2022/04/21 23:27:13;;;;;;;6.17;5.67;;;12.50;86.40;;;;;;10456484;28;20243;-79
2022/04/21 23:32:15;;;;;;;6.47;5.97;;;12.40;86.20;;;;;;10456232;28;20245;-79
2022/04/21 23:37:17;;;;;;;6.00;5.47;;;12.40;86.60;;;;;;10457275;28;20198;-82
2022/04/21 23:42:21;;;;;;;6.40;5.90;;;12.50;84.20;;;;;;10456178;28;20213;-82
2022/04/21 23:47:25;;;;;;;6.00;5.60;;;12.40;86.60;;;;;;10457186;28;20193;-79
2022/04/21 23:52:27;;;;;;;5.80;5.40;;;12.40;86.00;;;;;;10456218;28;20214;-79
2022/04/21 23:57:31;;;;;;;6.00;5.60;;;12.40;86.50;;;;;;10454938;28;20700;-78
